sensor_id;sensor_type;location;lat;lon;timestamp;P1;durP1;ratioP1;P2;durP2;ratioP2
15466;SDS011;7834;49.452;11.056;2023-07-09T00:00:17;13.40;;;8.85;;
15466;SDS011;7834;49.452;11.056;2023-07-09T00:02:44;10.18;;;8.60;;
15466;SDS011;7834;49.452;11.056;2023-07-09T00:05:14;11.50;;;9.48;;
15466;SDS011;7834;49.452;11.056;2023-07-09T00:07:40;11.55;;;9.30;;
15466;SDS011;7834;49.452;11.056;2023-07-09T00:10:25;10.88;;;8.38;;
15466;SDS011;7834;49.452;11.056;2023-07-09T00:12:51;9.50;;;8.52;;
15466;SDS011;7834;49.452;11.056;2023-07-09T00:15:17;9.57;;;8.68;;
15466;SDS011;7834;49.452;11.056;2023-07-09T00:17:43;10.82;;;9.07;;
15466;SDS011;7834;49.452;11.056;2023-07-09T00:20:14;11.43;;;8.27;;
15466;SDS011;7834;49.452;11.056;2023-07-09T00:22:41;11.65;;;8.98;;
15466;SDS011;7834;49.452;11.056;2023-07-09T00:25:10;10.43;;;8.57;;
15466;SDS011;7834;49.452;11.056;2023-07-09T00:27:41;10.73;;;8.60;;
15466;SDS011;7834;49.452;11.056;2023-07-09T00:30:13;13.43;;;8.32;;
15466;SDS011;7834;49.452;11.056;2023-07-09T00:32:41;11.18;;;8.68;;
15466;SDS011;7834;49.452;11.056;2023-07-09T00:35:08;10.30;;;8.38;;
15466;SDS011;7834;49.452;11.056;2023-07-09T00:37:34;10.18;;;8.52;;
15466;SDS011;7834;49.452;11.056;2023-07-09T00:40:00;10.77;;;8.32;;
15466;SDS011;7834;49.452;11.056;2023-07-09T00:42:26;9.60;;;8.52;;
15466;SDS011;7834;49.452;11.056;2023-07-09T00:44:53;10.10;;;8.32;;
15466;SDS011;7834;49.452;11.056;2023-07-09T00:49:46;14.48;;;9.00;;
15466;SDS011;7834;49.452;11.056;2023-07-09T00:52:29;10.00;;;9.00;;
15466;SDS011;7834;49.452;11.056;2023-07-09T00:54:59;10.18;;;8.80;;
15466;SDS011;7834;49.452;11.056;2023-07-09T00:57:26;9.07;;;8.20;;
15466;SDS011;7834;49.452;11.056;2023-07-09T00:59:57;9.32;;;8.10;;
15466;SDS011;7834;49.452;11.056;2023-07-09T01:02:24;9.48;;;8.48;;
15466;SDS011;7834;49.452;11.056;2023-07-09T01:04:55;10.27;;;7.95;;
15466;SDS011;7834;49.452;11.056;2023-07-09T01:07:25;11.10;;;8.88;;
15466;SDS011;7834;49.452;11.056;2023-07-09T01:09:51;8.85;;;7.95;;
15466;SDS011;7834;49.452;11.056;2023-07-09T01:12:18;10.30;;;8.77;;
15466;SDS011;7834;49.452;11.056;2023-07-09T01:14:46;11.38;;;8.35;;
15466;SDS011;7834;49.452;11.056;2023-07-09T01:17:15;8.98;;;8.13;;
15466;SDS011;7834;49.452;11.056;2023-07-09T01:19:42;9.25;;;8.35;;
15466;SDS011;7834;49.452;11.056;2023-07-09T01:22:09;9.77;;;8.77;;
15466;SDS011;7834;49.452;11.056;2023-07-09T01:27:25;9.68;;;8.68;;
15466;SDS011;7834;49.452;11.056;2023-07-09T01:29:51;11.52;;;8.65;;
15466;SDS011;7834;49.452;11.056;2023-07-09T01:32:18;9.23;;;7.90;;
15466;SDS011;7834;49.452;11.056;2023-07-09T01:34:48;9.15;;;8.20;;
15466;SDS011;7834;49.452;11.056;2023-07-09T01:37:19;10.35;;;8.07;;
15466;SDS011;7834;49.452;11.056;2023-07-09T01:39:47;11.05;;;8.40;;
15466;SDS011;7834;49.452;11.056;2023-07-09T01:42:14;13.95;;;8.75;;
15466;SDS011;7834;49.452;11.056;2023-07-09T01:44:40;10.93;;;8.50;;
15466;SDS011;7834;49.452;11.056;2023-07-09T01:47:07;9.13;;;8.00;;
15466;SDS011;7834;49.452;11.056;2023-07-09T01:49:34;9.18;;;8.25;;
15466;SDS011;7834;49.452;11.056;2023-07-09T01:52:00;10.23;;;8.88;;
15466;SDS011;7834;49.452;11.056;2023-07-09T01:54:30;9.35;;;8.10;;
15466;SDS011;7834;49.452;11.056;2023-07-09T01:57:12;9.57;;;8.25;;
15466;SDS011;7834;49.452;11.056;2023-07-09T01:59:38;9.88;;;8.13;;
15466;SDS011;7834;49.452;11.056;2023-07-09T02:02:06;8.23;;;7.43;;
15466;SDS011;7834;49.452;11.056;2023-07-09T02:04:32;11.73;;;8.57;;
15466;SDS011;7834;49.452;11.056;2023-07-09T02:06:58;10.70;;;8.90;;
15466;SDS011;7834;49.452;11.056;2023-07-09T02:09:24;10.68;;;8.57;;
15466;SDS011;7834;49.452;11.056;2023-07-09T02:11:50;9.90;;;8.55;;
15466;SDS011;7834;49.452;11.056;2023-07-09T02:14:17;11.75;;;9.02;;
15466;SDS011;7834;49.452;11.056;2023-07-09T02:16:44;9.90;;;8.90;;
15466;SDS011;7834;49.452;11.056;2023-07-09T02:19:10;11.93;;;9.70;;
15466;SDS011;7834;49.452;11.056;2023-07-09T02:21:36;11.50;;;8.60;;
15466;SDS011;7834;49.452;11.056;2023-07-09T02:24:02;9.50;;;8.55;;
15466;SDS011;7834;49.452;11.056;2023-07-09T02:26:29;9.57;;;8.65;;
15466;SDS011;7834;49.452;11.056;2023-07-09T02:28:55;10.20;;;8.57;;
15466;SDS011;7834;49.452;11.056;2023-07-09T02:31:21;13.05;;;8.77;;
15466;SDS011;7834;49.452;11.056;2023-07-09T02:33:47;10.00;;;8.23;;
15466;SDS011;7834;49.452;11.056;2023-07-09T02:36:12;9.70;;;8.68;;
15466;SDS011;7834;49.452;11.056;2023-07-09T02:38:38;10.82;;;8.68;;
15466;SDS011;7834;49.452;11.056;2023-07-09T02:41:04;11.73;;;8.82;;
15466;SDS011;7834;49.452;11.056;2023-07-09T02:43:30;10.60;;;8.85;;
15466;SDS011;7834;49.452;11.056;2023-07-09T02:45:56;10.77;;;8.85;;
15466;SDS011;7834;49.452;11.056;2023-07-09T02:48:22;9.35;;;8.45;;
15466;SDS011;7834;49.452;11.056;2023-07-09T02:50:49;9.93;;;8.90;;
15466;SDS011;7834;49.452;11.056;2023-07-09T02:53:15;11.43;;;8.75;;
15466;SDS011;7834;49.452;11.056;2023-07-09T02:55:41;10.95;;;9.48;;
15466;SDS011;7834;49.452;11.056;2023-07-09T02:58:07;11.43;;;8.88;;
15466;SDS011;7834;49.452;11.056;2023-07-09T03:00:33;10.07;;;8.65;;
15466;SDS011;7834;49.452;11.056;2023-07-09T03:02:59;9.82;;;8.82;;
15466;SDS011;7834;49.452;11.056;2023-07-09T03:05:25;9.73;;;8.70;;
15466;SDS011;7834;49.452;11.056;2023-07-09T03:07:51;12.05;;;8.68;;
15466;SDS011;7834;49.452;11.056;2023-07-09T03:10:17;11.00;;;9.43;;
15466;SDS011;7834;49.452;11.056;2023-07-09T03:12:43;11.82;;;9.38;;
15466;SDS011;7834;49.452;11.056;2023-07-09T03:15:09;10.07;;;9.07;;
15466;SDS011;7834;49.452;11.056;2023-07-09T03:17:35;10.23;;;8.43;;
15466;SDS011;7834;49.452;11.056;2023-07-09T03:20:01;10.25;;;8.88;;
15466;SDS011;7834;49.452;11.056;2023-07-09T03:22:27;9.93;;;8.93;;
15466;SDS011;7834;49.452;11.056;2023-07-09T03:24:53;11.35;;;8.68;;
15466;SDS011;7834;49.452;11.056;2023-07-09T03:27:19;10.40;;;8.70;;
15466;SDS011;7834;49.452;11.056;2023-07-09T03:29:45;10.77;;;9.20;;
15466;SDS011;7834;49.452;11.056;2023-07-09T03:32:11;9.75;;;8.75;;
15466;SDS011;7834;49.452;11.056;2023-07-09T03:34:37;10.93;;;8.98;;
15466;SDS011;7834;49.452;11.056;2023-07-09T03:37:03;11.00;;;8.68;;
15466;SDS011;7834;49.452;11.056;2023-07-09T03:39:30;9.20;;;8.30;;
15466;SDS011;7834;49.452;11.056;2023-07-09T03:41:56;10.80;;;8.52;;
15466;SDS011;7834;49.452;11.056;2023-07-09T03:44:22;12.13;;;9.10;;
15466;SDS011;7834;49.452;11.056;2023-07-09T03:46:48;10.45;;;9.32;;
15466;SDS011;7834;49.452;11.056;2023-07-09T03:49:14;12.25;;;9.18;;
15466;SDS011;7834;49.452;11.056;2023-07-09T03:51:40;11.10;;;8.85;;
15466;SDS011;7834;49.452;11.056;2023-07-09T03:54:06;10.32;;;8.73;;
15466;SDS011;7834;49.452;11.056;2023-07-09T03:56:32;12.30;;;8.77;;
15466;SDS011;7834;49.452;11.056;2023-07-09T03:58:58;12.00;;;8.35;;
15466;SDS011;7834;49.452;11.056;2023-07-09T04:01:24;11.35;;;8.82;;
15466;SDS011;7834;49.452;11.056;2023-07-09T04:03:50;9.32;;;8.32;;
15466;SDS011;7834;49.452;11.056;2023-07-09T04:06:16;10.30;;;8.38;;
15466;SDS011;7834;49.452;11.056;2023-07-09T04:08:42;10.23;;;8.68;;
15466;SDS011;7834;49.452;11.056;2023-07-09T04:11:09;9.70;;;8.73;;
15466;SDS011;7834;49.452;11.056;2023-07-09T04:13:35;10.98;;;8.32;;
15466;SDS011;7834;49.452;11.056;2023-07-09T04:16:01;10.77;;;8.00;;
15466;SDS011;7834;49.452;11.056;2023-07-09T04:18:27;9.60;;;8.30;;
15466;SDS011;7834;49.452;11.056;2023-07-09T04:20:53;9.68;;;8.68;;
15466;SDS011;7834;49.452;11.056;2023-07-09T04:23:19;9.25;;;8.35;;
15466;SDS011;7834;49.452;11.056;2023-07-09T04:25:45;11.00;;;8.25;;
15466;SDS011;7834;49.452;11.056;2023-07-09T04:28:11;12.52;;;9.05;;
15466;SDS011;7834;49.452;11.056;2023-07-09T04:30:38;13.00;;;8.88;;
15466;SDS011;7834;49.452;11.056;2023-07-09T04:33:05;11.88;;;8.63;;
15466;SDS011;7834;49.452;11.056;2023-07-09T04:35:31;11.15;;;8.30;;
15466;SDS011;7834;49.452;11.056;2023-07-09T04:37:57;11.57;;;8.43;;
15466;SDS011;7834;49.452;11.056;2023-07-09T04:40:23;11.73;;;8.30;;
15466;SDS011;7834;49.452;11.056;2023-07-09T04:42:49;11.98;;;8.85;;
15466;SDS011;7834;49.452;11.056;2023-07-09T04:45:15;9.50;;;8.30;;
15466;SDS011;7834;49.452;11.056;2023-07-09T04:47:41;9.80;;;8.80;;
15466;SDS011;7834;49.452;11.056;2023-07-09T04:50:07;9.55;;;8.20;;
15466;SDS011;7834;49.452;11.056;2023-07-09T04:52:34;10.95;;;8.73;;
15466;SDS011;7834;49.452;11.056;2023-07-09T04:55:00;11.52;;;9.52;;
15466;SDS011;7834;49.452;11.056;2023-07-09T04:57:26;10.73;;;8.77;;
15466;SDS011;7834;49.452;11.056;2023-07-09T04:59:52;11.05;;;8.93;;
15466;SDS011;7834;49.452;11.056;2023-07-09T05:02:19;11.18;;;9.40;;
15466;SDS011;7834;49.452;11.056;2023-07-09T05:04:45;10.68;;;9.27;;
15466;SDS011;7834;49.452;11.056;2023-07-09T05:07:11;11.43;;;9.25;;
15466;SDS011;7834;49.452;11.056;2023-07-09T05:09:37;11.98;;;9.43;;
15466;SDS011;7834;49.452;11.056;2023-07-09T05:12:03;12.60;;;8.80;;
15466;SDS011;7834;49.452;11.056;2023-07-09T05:14:29;10.50;;;8.52;;
15466;SDS011;7834;49.452;11.056;2023-07-09T05:16:55;10.00;;;8.77;;
15466;SDS011;7834;49.452;11.056;2023-07-09T05:19:21;10.45;;;8.43;;
15466;SDS011;7834;49.452;11.056;2023-07-09T05:21:47;10.07;;;8.55;;
15466;SDS011;7834;49.452;11.056;2023-07-09T05:24:13;12.15;;;8.80;;
15466;SDS011;7834;49.452;11.056;2023-07-09T05:26:39;10.60;;;8.57;;
15466;SDS011;7834;49.452;11.056;2023-07-09T05:29:05;11.75;;;8.60;;
15466;SDS011;7834;49.452;11.056;2023-07-09T05:31:32;9.10;;;7.90;;
15466;SDS011;7834;49.452;11.056;2023-07-09T05:33:59;9.90;;;8.15;;
15466;SDS011;7834;49.452;11.056;2023-07-09T05:36:26;8.85;;;7.72;;
15466;SDS011;7834;49.452;11.056;2023-07-09T05:38:52;10.85;;;8.27;;
15466;SDS011;7834;49.452;11.056;2023-07-09T05:41:18;9.68;;;8.18;;
15466;SDS011;7834;49.452;11.056;2023-07-09T05:43:45;9.48;;;8.50;;
15466;SDS011;7834;49.452;11.056;2023-07-09T05:46:11;10.88;;;8.32;;
15466;SDS011;7834;49.452;11.056;2023-07-09T05:48:37;11.60;;;7.50;;
15466;SDS011;7834;49.452;11.056;2023-07-09T05:51:04;13.00;;;8.20;;
15466;SDS011;7834;49.452;11.056;2023-07-09T05:53:30;9.90;;;8.90;;
15466;SDS011;7834;49.452;11.056;2023-07-09T05:55:58;9.25;;;8.25;;
15466;SDS011;7834;49.452;11.056;2023-07-09T05:58:24;12.60;;;8.38;;
15466;SDS011;7834;49.452;11.056;2023-07-09T06:00:50;10.45;;;8.70;;
15466;SDS011;7834;49.452;11.056;2023-07-09T06:03:21;10.13;;;8.00;;
15466;SDS011;7834;49.452;11.056;2023-07-09T06:05:48;10.63;;;8.10;;
15466;SDS011;7834;49.452;11.056;2023-07-09T06:08:15;9.75;;;7.93;;
15466;SDS011;7834;49.452;11.056;2023-07-09T06:11:00;11.48;;;8.07;;
15466;SDS011;7834;49.452;11.056;2023-07-09T06:13:27;9.15;;;7.97;;
15466;SDS011;7834;49.452;11.056;2023-07-09T06:15:55;10.32;;;7.03;;
15466;SDS011;7834;49.452;11.056;2023-07-09T06:18:22;11.45;;;7.35;;
15466;SDS011;7834;49.452;11.056;2023-07-09T06:20:52;8.23;;;7.10;;
15466;SDS011;7834;49.452;11.056;2023-07-09T06:23:18;8.75;;;7.85;;
15466;SDS011;7834;49.452;11.056;2023-07-09T06:25:45;9.13;;;7.53;;
15466;SDS011;7834;49.452;11.056;2023-07-09T06:28:16;12.52;;;7.50;;
15466;SDS011;7834;49.452;11.056;2023-07-09T06:30:42;9.07;;;7.40;;
15466;SDS011;7834;49.452;11.056;2023-07-09T06:33:08;10.30;;;7.97;;
15466;SDS011;7834;49.452;11.056;2023-07-09T06:35:34;8.65;;;7.78;;
15466;SDS011;7834;49.452;11.056;2023-07-09T06:38:00;9.63;;;7.25;;
15466;SDS011;7834;49.452;11.056;2023-07-09T06:40:26;8.13;;;7.32;;
15466;SDS011;7834;49.452;11.056;2023-07-09T06:42:53;7.63;;;6.88;;
15466;SDS011;7834;49.452;11.056;2023-07-09T06:45:19;11.88;;;8.05;;
15466;SDS011;7834;49.452;11.056;2023-07-09T06:47:46;10.13;;;7.43;;
15466;SDS011;7834;49.452;11.056;2023-07-09T06:50:14;13.30;;;7.75;;
15466;SDS011;7834;49.452;11.056;2023-07-09T06:52:40;8.63;;;7.22;;
15466;SDS011;7834;49.452;11.056;2023-07-09T06:55:06;8.70;;;7.38;;
15466;SDS011;7834;49.452;11.056;2023-07-09T06:57:32;9.20;;;7.82;;
15466;SDS011;7834;49.452;11.056;2023-07-09T06:59:59;9.18;;;7.95;;
15466;SDS011;7834;49.452;11.056;2023-07-09T07:02:25;10.13;;;7.40;;
15466;SDS011;7834;49.452;11.056;2023-07-09T07:04:51;11.02;;;7.75;;
15466;SDS011;7834;49.452;11.056;2023-07-09T07:07:17;8.20;;;7.40;;
15466;SDS011;7834;49.452;11.056;2023-07-09T07:09:43;9.82;;;7.40;;
15466;SDS011;7834;49.452;11.056;2023-07-09T07:12:09;7.82;;;7.03;;
15466;SDS011;7834;49.452;11.056;2023-07-09T07:14:35;8.57;;;7.47;;
15466;SDS011;7834;49.452;11.056;2023-07-09T07:17:01;8.95;;;7.20;;
15466;SDS011;7834;49.452;11.056;2023-07-09T07:19:29;10.48;;;7.47;;
15466;SDS011;7834;49.452;11.056;2023-07-09T07:21:55;8.73;;;7.57;;
15466;SDS011;7834;49.452;11.056;2023-07-09T07:24:21;8.00;;;7.07;;
15466;SDS011;7834;49.452;11.056;2023-07-09T07:26:47;8.57;;;6.78;;
15466;SDS011;7834;49.452;11.056;2023-07-09T07:29:13;9.35;;;7.80;;
15466;SDS011;7834;49.452;11.056;2023-07-09T07:31:39;7.90;;;7.07;;
15466;SDS011;7834;49.452;11.056;2023-07-09T07:34:05;9.15;;;7.05;;
15466;SDS011;7834;49.452;11.056;2023-07-09T07:36:31;13.35;;;6.82;;
15466;SDS011;7834;49.452;11.056;2023-07-09T07:38:57;7.78;;;6.25;;
15466;SDS011;7834;49.452;11.056;2023-07-09T07:41:23;11.02;;;7.22;;
15466;SDS011;7834;49.452;11.056;2023-07-09T07:43:49;9.00;;;6.95;;
15466;SDS011;7834;49.452;11.056;2023-07-09T07:46:15;10.95;;;7.18;;
15466;SDS011;7834;49.452;11.056;2023-07-09T07:48:41;7.35;;;6.63;;
15466;SDS011;7834;49.452;11.056;2023-07-09T07:51:07;7.05;;;6.32;;
15466;SDS011;7834;49.452;11.056;2023-07-09T07:53:33;8.27;;;6.72;;
15466;SDS011;7834;49.452;11.056;2023-07-09T07:55:59;7.07;;;5.97;;
15466;SDS011;7834;49.452;11.056;2023-07-09T07:58:28;7.10;;;6.40;;
15466;SDS011;7834;49.452;11.056;2023-07-09T08:00:56;6.97;;;6.28;;
15466;SDS011;7834;49.452;11.056;2023-07-09T08:03:23;7.10;;;6.40;;
15466;SDS011;7834;49.452;11.056;2023-07-09T08:05:49;9.10;;;6.22;;
15466;SDS011;7834;49.452;11.056;2023-07-09T08:08:15;6.85;;;5.70;;
15466;SDS011;7834;49.452;11.056;2023-07-09T08:10:42;6.47;;;5.65;;
15466;SDS011;7834;49.452;11.056;2023-07-09T08:13:08;7.78;;;5.78;;
15466;SDS011;7834;49.452;11.056;2023-07-09T08:15:34;8.50;;;5.78;;
15466;SDS011;7834;49.452;11.056;2023-07-09T08:18:00;7.78;;;5.80;;
15466;SDS011;7834;49.452;11.056;2023-07-09T08:20:26;6.53;;;5.70;;
15466;SDS011;7834;49.452;11.056;2023-07-09T08:22:52;6.88;;;5.45;;
15466;SDS011;7834;49.452;11.056;2023-07-09T08:25:18;6.70;;;6.05;;
15466;SDS011;7834;49.452;11.056;2023-07-09T08:27:44;6.25;;;5.55;;
15466;SDS011;7834;49.452;11.056;2023-07-09T08:30:10;6.63;;;5.50;;
15466;SDS011;7834;49.452;11.056;2023-07-09T08:32:36;6.38;;;4.68;;
15466;SDS011;7834;49.452;11.056;2023-07-09T08:35:02;6.47;;;4.75;;
15466;SDS011;7834;49.452;11.056;2023-07-09T08:37:28;6.40;;;5.80;;
15466;SDS011;7834;49.452;11.056;2023-07-09T08:39:54;6.13;;;5.53;;
15466;SDS011;7834;49.452;11.056;2023-07-09T08:42:23;6.15;;;4.40;;
15466;SDS011;7834;49.452;11.056;2023-07-09T08:47:32;5.65;;;4.90;;
15466;SDS011;7834;49.452;11.056;2023-07-09T08:50:00;6.80;;;5.18;;
15466;SDS011;7834;49.452;11.056;2023-07-09T08:52:30;5.65;;;4.80;;
15466;SDS011;7834;49.452;11.056;2023-07-09T08:54:59;7.40;;;4.57;;
15466;SDS011;7834;49.452;11.056;2023-07-09T08:57:37;6.60;;;4.68;;
15466;SDS011;7834;49.452;11.056;2023-07-09T09:00:14;6.00;;;4.60;;
15466;SDS011;7834;49.452;11.056;2023-07-09T09:03:07;6.93;;;5.10;;
15466;SDS011;7834;49.452;11.056;2023-07-09T09:05:31;5.68;;;5.00;;
15466;SDS011;7834;49.452;11.056;2023-07-09T09:08:02;6.28;;;5.07;;
15466;SDS011;7834;49.452;11.056;2023-07-09T09:10:44;7.85;;;5.38;;
15466;SDS011;7834;49.452;11.056;2023-07-09T09:13:12;8.27;;;5.07;;
15466;SDS011;7834;49.452;11.056;2023-07-09T09:15:39;5.75;;;4.90;;
15466;SDS011;7834;49.452;11.056;2023-07-09T09:18:20;9.15;;;5.15;;
15466;SDS011;7834;49.452;11.056;2023-07-09T09:20:48;5.57;;;4.88;;
15466;SDS011;7834;49.452;11.056;2023-07-09T09:23:15;6.32;;;5.30;;
15466;SDS011;7834;49.452;11.056;2023-07-09T09:25:42;6.90;;;5.15;;
15466;SDS011;7834;49.452;11.056;2023-07-09T09:28:10;11.70;;;5.15;;
15466;SDS011;7834;49.452;11.056;2023-07-09T09:30:36;6.82;;;4.97;;
15466;SDS011;7834;49.452;11.056;2023-07-09T09:33:05;7.80;;;5.00;;
15466;SDS011;7834;49.452;11.056;2023-07-09T09:35:33;6.65;;;5.05;;
15466;SDS011;7834;49.452;11.056;2023-07-09T09:37:59;8.90;;;5.10;;
15466;SDS011;7834;49.452;11.056;2023-07-09T09:40:26;5.30;;;4.80;;
15466;SDS011;7834;49.452;11.056;2023-07-09T09:42:54;7.22;;;5.13;;
15466;SDS011;7834;49.452;11.056;2023-07-09T09:45:21;7.05;;;5.03;;
15466;SDS011;7834;49.452;11.056;2023-07-09T09:47:47;5.45;;;4.70;;
15466;SDS011;7834;49.452;11.056;2023-07-09T09:50:18;5.50;;;4.95;;
15466;SDS011;7834;49.452;11.056;2023-07-09T09:52:44;14.50;;;12.93;;
15466;SDS011;7834;49.452;11.056;2023-07-09T09:55:15;5.88;;;5.28;;
15466;SDS011;7834;49.452;11.056;2023-07-09T09:57:46;7.20;;;5.18;;
15466;SDS011;7834;49.452;11.056;2023-07-09T10:00:13;7.28;;;5.20;;
15466;SDS011;7834;49.452;11.056;2023-07-09T10:02:41;8.25;;;5.20;;
15466;SDS011;7834;49.452;11.056;2023-07-09T10:05:16;7.22;;;5.10;;
15466;SDS011;7834;49.452;11.056;2023-07-09T10:07:47;7.63;;;4.93;;
15466;SDS011;7834;49.452;11.056;2023-07-09T10:10:20;6.07;;;5.15;;
15466;SDS011;7834;49.452;11.056;2023-07-09T10:12:52;5.70;;;5.10;;
15466;SDS011;7834;49.452;11.056;2023-07-09T10:17:58;6.47;;;4.75;;
15466;SDS011;7834;49.452;11.056;2023-07-09T10:20:35;5.28;;;4.65;;
15466;SDS011;7834;49.452;11.056;2023-07-09T10:23:27;7.53;;;5.05;;
15466;SDS011;7834;49.452;11.056;2023-07-09T10:25:49;6.20;;;4.78;;
15466;SDS011;7834;49.452;11.056;2023-07-09T10:38:26;7.40;;;5.05;;
15466;SDS011;7834;49.452;11.056;2023-07-09T10:40:59;5.18;;;4.68;;
15466;SDS011;7834;49.452;11.056;2023-07-09T10:46:11;5.65;;;4.93;;
15466;SDS011;7834;49.452;11.056;2023-07-09T10:48:39;13.50;;;5.47;;
15466;SDS011;7834;49.452;11.056;2023-07-09T10:51:23;6.55;;;5.03;;
15466;SDS011;7834;49.452;11.056;2023-07-09T10:54:37;8.25;;;5.32;;
15466;SDS011;7834;49.452;11.056;2023-07-09T10:56:37;6.95;;;5.30;;
15466;SDS011;7834;49.452;11.056;2023-07-09T11:01:40;5.85;;;5.10;;
15466;SDS011;7834;49.452;11.056;2023-07-09T11:04:18;6.10;;;5.50;;
15466;SDS011;7834;49.452;11.056;2023-07-09T11:06:47;7.47;;;6.05;;
15466;SDS011;7834;49.452;11.056;2023-07-09T11:09:18;8.68;;;6.22;;
15466;SDS011;7834;49.452;11.056;2023-07-09T11:11:47;14.05;;;10.57;;
15466;SDS011;7834;49.452;11.056;2023-07-09T11:14:22;8.23;;;5.55;;
15466;SDS011;7834;49.452;11.056;2023-07-09T11:16:49;6.82;;;5.47;;
15466;SDS011;7834;49.452;11.056;2023-07-09T11:19:17;7.10;;;5.90;;
15466;SDS011;7834;49.452;11.056;2023-07-09T11:24:47;7.93;;;5.63;;
15466;SDS011;7834;49.452;11.056;2023-07-09T11:27:16;5.85;;;5.25;;
15466;SDS011;7834;49.452;11.056;2023-07-09T11:29:47;7.07;;;5.82;;
15466;SDS011;7834;49.452;11.056;2023-07-09T11:32:17;9.13;;;5.43;;
15466;SDS011;7834;49.452;11.056;2023-07-09T11:34:44;7.20;;;4.90;;
15466;SDS011;7834;49.452;11.056;2023-07-09T11:37:11;6.40;;;5.65;;
15466;SDS011;7834;49.452;11.056;2023-07-09T11:45:11;5.55;;;5.03;;
15466;SDS011;7834;49.452;11.056;2023-07-09T11:47:42;7.97;;;5.47;;
15466;SDS011;7834;49.452;11.056;2023-07-09T11:50:14;7.05;;;4.78;;
15466;SDS011;7834;49.452;11.056;2023-07-09T11:52:42;7.50;;;4.80;;
15466;SDS011;7834;49.452;11.056;2023-07-09T11:55:19;7.40;;;5.45;;
15466;SDS011;7834;49.452;11.056;2023-07-09T11:57:47;8.45;;;5.28;;
15466;SDS011;7834;49.452;11.056;2023-07-09T12:00:14;5.55;;;4.97;;
15466;SDS011;7834;49.452;11.056;2023-07-09T12:02:40;8.15;;;5.80;;
15466;SDS011;7834;49.452;11.056;2023-07-09T12:05:06;6.30;;;5.65;;
15466;SDS011;7834;49.452;11.056;2023-07-09T12:07:33;6.55;;;5.60;;
15466;SDS011;7834;49.452;11.056;2023-07-09T12:10:02;8.00;;;5.70;;
15466;SDS011;7834;49.452;11.056;2023-07-09T12:12:28;7.28;;;5.28;;
15466;SDS011;7834;49.452;11.056;2023-07-09T12:14:54;8.80;;;5.22;;
15466;SDS011;7834;49.452;11.056;2023-07-09T12:17:25;6.57;;;5.10;;
15466;SDS011;7834;49.452;11.056;2023-07-09T12:19:53;6.13;;;5.28;;
15466;SDS011;7834;49.452;11.056;2023-07-09T12:22:20;6.25;;;5.65;;
15466;SDS011;7834;49.452;11.056;2023-07-09T12:24:47;6.65;;;5.20;;
15466;SDS011;7834;49.452;11.056;2023-07-09T12:27:18;5.63;;;5.00;;
15466;SDS011;7834;49.452;11.056;2023-07-09T12:29:44;6.55;;;5.15;;
15466;SDS011;7834;49.452;11.056;2023-07-09T12:32:14;7.72;;;4.68;;
15466;SDS011;7834;49.452;11.056;2023-07-09T12:34:41;7.25;;;5.00;;
15466;SDS011;7834;49.452;11.056;2023-07-09T12:37:09;8.07;;;4.82;;
15466;SDS011;7834;49.452;11.056;2023-07-09T12:39:37;6.82;;;5.07;;
15466;SDS011;7834;49.452;11.056;2023-07-09T12:42:04;8.63;;;5.57;;
15466;SDS011;7834;49.452;11.056;2023-07-09T12:44:31;7.30;;;5.47;;
15466;SDS011;7834;49.452;11.056;2023-07-09T12:47:00;7.05;;;5.10;;
15466;SDS011;7834;49.452;11.056;2023-07-09T12:49:28;8.10;;;5.68;;
15466;SDS011;7834;49.452;11.056;2023-07-09T12:51:58;7.50;;;6.20;;
15466;SDS011;7834;49.452;11.056;2023-07-09T12:54:24;11.00;;;5.35;;
15466;SDS011;7834;49.452;11.056;2023-07-09T12:56:51;7.93;;;5.97;;
15466;SDS011;7834;49.452;11.056;2023-07-09T13:01:47;6.50;;;5.90;;
15466;SDS011;7834;49.452;11.056;2023-07-09T13:04:13;8.55;;;6.00;;
15466;SDS011;7834;49.452;11.056;2023-07-09T13:06:44;6.90;;;6.20;;
15466;SDS011;7834;49.452;11.056;2023-07-09T13:09:20;6.80;;;6.13;;
15466;SDS011;7834;49.452;11.056;2023-07-09T13:11:46;7.90;;;6.10;;
15466;SDS011;7834;49.452;11.056;2023-07-09T13:14:17;8.32;;;6.40;;
15466;SDS011;7834;49.452;11.056;2023-07-09T13:16:44;9.63;;;6.57;;
15466;SDS011;7834;49.452;11.056;2023-07-09T13:19:10;6.85;;;6.10;;
15466;SDS011;7834;49.452;11.056;2023-07-09T13:21:36;7.38;;;6.20;;
15466;SDS011;7834;49.452;11.056;2023-07-09T13:24:07;6.95;;;5.82;;
15466;SDS011;7834;49.452;11.056;2023-07-09T13:26:37;6.03;;;5.53;;
15466;SDS011;7834;49.452;11.056;2023-07-09T13:29:07;6.70;;;5.55;;
15466;SDS011;7834;49.452;11.056;2023-07-09T13:31:36;6.25;;;5.63;;
15466;SDS011;7834;49.452;11.056;2023-07-09T13:34:04;7.20;;;5.90;;
15466;SDS011;7834;49.452;11.056;2023-07-09T13:36:34;7.63;;;6.28;;
15466;SDS011;7834;49.452;11.056;2023-07-09T13:39:01;7.70;;;6.35;;
15466;SDS011;7834;49.452;11.056;2023-07-09T13:41:27;7.68;;;6.38;;
15466;SDS011;7834;49.452;11.056;2023-07-09T13:43:53;7.30;;;6.32;;
15466;SDS011;7834;49.452;11.056;2023-07-09T13:46:21;7.78;;;5.85;;
15466;SDS011;7834;49.452;11.056;2023-07-09T13:48:50;6.60;;;6.00;;
15466;SDS011;7834;49.452;11.056;2023-07-09T13:51:18;8.05;;;6.30;;
15466;SDS011;7834;49.452;11.056;2023-07-09T13:53:45;6.68;;;6.07;;
15466;SDS011;7834;49.452;11.056;2023-07-09T13:56:11;8.48;;;6.40;;
15466;SDS011;7834;49.452;11.056;2023-07-09T13:58:37;7.47;;;6.18;;
15466;SDS011;7834;49.452;11.056;2023-07-09T14:01:14;6.57;;;5.70;;
15466;SDS011;7834;49.452;11.056;2023-07-09T14:03:41;6.85;;;6.15;;
15466;SDS011;7834;49.452;11.056;2023-07-09T14:06:13;9.45;;;6.47;;
15466;SDS011;7834;49.452;11.056;2023-07-09T14:08:39;7.93;;;6.35;;
15466;SDS011;7834;49.452;11.056;2023-07-09T14:11:09;6.88;;;6.28;;
15466;SDS011;7834;49.452;11.056;2023-07-09T14:13:36;6.63;;;5.93;;
15466;SDS011;7834;49.452;11.056;2023-07-09T14:16:02;6.35;;;5.75;;
15466;SDS011;7834;49.452;11.056;2023-07-09T14:18:28;21.08;;;6.30;;
15466;SDS011;7834;49.452;11.056;2023-07-09T14:20:54;6.78;;;6.18;;
15466;SDS011;7834;49.452;11.056;2023-07-09T14:23:21;7.47;;;6.38;;
15466;SDS011;7834;49.452;11.056;2023-07-09T14:25:47;7.45;;;6.32;;
15466;SDS011;7834;49.452;11.056;2023-07-09T14:28:18;7.03;;;6.32;;
15466;SDS011;7834;49.452;11.056;2023-07-09T14:30:44;7.45;;;6.30;;
15466;SDS011;7834;49.452;11.056;2023-07-09T14:33:12;7.55;;;5.93;;
15466;SDS011;7834;49.452;11.056;2023-07-09T14:35:39;7.45;;;6.75;;
15466;SDS011;7834;49.452;11.056;2023-07-09T14:38:38;7.15;;;6.45;;
15466;SDS011;7834;49.452;11.056;2023-07-09T14:40:58;6.70;;;5.85;;
15466;SDS011;7834;49.452;11.056;2023-07-09T14:43:25;6.63;;;6.05;;
15466;SDS011;7834;49.452;11.056;2023-07-09T14:45:51;7.53;;;6.82;;
15466;SDS011;7834;49.452;11.056;2023-07-09T14:48:18;9.65;;;6.40;;
15466;SDS011;7834;49.452;11.056;2023-07-09T14:50:45;7.63;;;6.50;;
15466;SDS011;7834;49.452;11.056;2023-07-09T14:53:22;8.38;;;6.57;;
15466;SDS011;7834;49.452;11.056;2023-07-09T14:55:49;8.18;;;7.38;;
15466;SDS011;7834;49.452;11.056;2023-07-09T14:58:17;9.45;;;6.53;;
15466;SDS011;7834;49.452;11.056;2023-07-09T15:00:43;7.63;;;6.72;;
15466;SDS011;7834;49.452;11.056;2023-07-09T15:03:11;7.22;;;6.45;;
15466;SDS011;7834;49.452;11.056;2023-07-09T15:05:40;7.28;;;6.40;;
15466;SDS011;7834;49.452;11.056;2023-07-09T15:08:10;8.35;;;6.55;;
15466;SDS011;7834;49.452;11.056;2023-07-09T15:10:37;8.15;;;6.53;;
15466;SDS011;7834;49.452;11.056;2023-07-09T15:13:04;7.10;;;6.40;;
15466;SDS011;7834;49.452;11.056;2023-07-09T15:15:30;7.25;;;6.40;;
15466;SDS011;7834;49.452;11.056;2023-07-09T15:17:58;7.60;;;6.90;;
15466;SDS011;7834;49.452;11.056;2023-07-09T15:20:26;8.00;;;7.20;;
15466;SDS011;7834;49.452;11.056;2023-07-09T15:22:53;7.68;;;6.97;;